createdAt,value
2019-02-19T00:02:17.116Z,9.30
2019-02-19T00:04:44.467Z,9.20
2019-02-19T00:07:11.829Z,9.20
2019-02-19T00:09:39.233Z,9.30
2019-02-19T00:12:06.772Z,9.30
2019-02-19T00:14:34.140Z,9.30
2019-02-19T00:17:01.548Z,9.20
2019-02-19T00:19:28.888Z,9.20
2019-02-19T00:21:56.249Z,9.20
2019-02-19T00:24:23.579Z,9.30
2019-02-19T00:26:50.841Z,9.30
2019-02-19T00:29:18.204Z,9.30
2019-02-19T00:31:45.601Z,9.20
2019-02-19T00:34:13.001Z,9.20
2019-02-19T00:36:40.379Z,9.20
2019-02-19T00:39:07.753Z,9.20
2019-02-19T00:41:35.097Z,9.20
2019-02-19T00:44:02.609Z,9.20
2019-02-19T00:46:29.959Z,9.20
2019-02-19T00:48:57.315Z,9.10
2019-02-19T00:51:24.682Z,9.10
2019-02-19T00:53:52.061Z,9.10
2019-02-19T00:56:19.450Z,9.10
2019-02-19T00:58:46.873Z,9.10
2019-02-19T01:01:14.005Z,9.10
2019-02-19T01:03:41.251Z,9.10
2019-02-19T01:06:08.574Z,9.00
2019-02-19T01:08:35.962Z,9.10
2019-02-19T01:11:03.343Z,9.10
2019-02-19T01:13:31.725Z,9.10
2019-02-19T01:15:59.095Z,9.10
2019-02-19T01:18:26.468Z,9.10
2019-02-19T01:20:53.794Z,9.10
2019-02-19T01:23:21.216Z,9.10
2019-02-19T01:25:48.559Z,9.10
2019-02-19T01:28:15.801Z,9.20
2019-02-19T01:30:43.067Z,9.20
2019-02-19T01:33:10.478Z,9.20
2019-02-19T01:35:37.819Z,9.20
2019-02-19T01:38:04.960Z,9.20
2019-02-19T01:40:32.201Z,9.20
2019-02-19T01:43:02.470Z,9.20
2019-02-19T01:45:34.169Z,9.20
2019-02-19T01:47:59.951Z,9.10
2019-02-19T01:50:27.336Z,9.10
2019-02-19T01:52:54.564Z,9.10
2019-02-19T01:55:21.680Z,9.00
2019-02-19T01:57:49.068Z,9.10
2019-02-19T02:00:16.313Z,9.00
2019-02-19T02:02:43.479Z,9.00
2019-02-19T02:05:10.832Z,9.00
2019-02-19T02:07:38.219Z,8.90
2019-02-19T02:10:05.797Z,9.00
2019-02-19T02:12:33.194Z,9.00
2019-02-19T02:15:00.576Z,9.00
2019-02-19T02:17:27.942Z,8.90
2019-02-19T02:19:55.290Z,8.90
2019-02-19T02:22:22.713Z,8.90
2019-02-19T02:24:49.970Z,8.80
2019-02-19T02:27:17.370Z,8.80
2019-02-19T02:29:44.742Z,8.70
2019-02-19T02:32:12.070Z,8.70
2019-02-19T02:34:39.408Z,8.70
2019-02-19T02:37:06.761Z,8.70
2019-02-19T02:39:34.187Z,8.70
2019-02-19T02:42:01.775Z,8.70
2019-02-19T02:44:29.520Z,8.60
2019-02-19T02:46:56.826Z,8.60
2019-02-19T02:49:24.825Z,8.60
2019-02-19T02:51:52.670Z,8.60
2019-02-19T02:54:20.125Z,8.60
2019-02-19T02:56:47.447Z,8.60
2019-02-19T02:59:14.827Z,8.50
2019-02-19T03:01:42.198Z,8.50
2019-02-19T03:04:09.322Z,8.50
2019-02-19T03:06:41.353Z,8.50
2019-02-19T03:09:08.777Z,8.50
2019-02-19T03:11:37.269Z,8.50
2019-02-19T03:14:04.623Z,8.40
2019-02-19T03:16:31.979Z,8.40
2019-02-19T03:18:59.382Z,8.30
2019-02-19T03:21:26.787Z,8.40
2019-02-19T03:23:54.204Z,8.40
2019-02-19T03:26:21.631Z,8.30
2019-02-19T03:28:48.871Z,8.30
2019-02-19T03:31:16.141Z,8.30
2019-02-19T03:33:43.519Z,8.30
2019-02-19T03:36:10.638Z,8.40
2019-02-19T03:38:37.807Z,8.30
2019-02-19T03:41:05.194Z,8.30
2019-02-19T03:43:33.523Z,8.30
2019-02-19T03:46:00.879Z,8.30
2019-02-19T03:48:28.297Z,8.20
2019-02-19T03:50:55.579Z,8.30
2019-02-19T03:53:23.078Z,8.30
2019-02-19T03:55:50.497Z,8.40
2019-02-19T03:58:17.855Z,8.40
2019-02-19T04:00:45.214Z,8.30
2019-02-19T04:03:12.599Z,8.30
2019-02-19T04:05:41.307Z,8.40
2019-02-19T04:08:08.647Z,8.30
2019-02-19T04:10:36.085Z,8.30
2019-02-19T04:13:03.483Z,8.30
2019-02-19T04:16:20.973Z,8.30
2019-02-19T04:18:43.354Z,8.30
2019-02-19T04:21:10.648Z,8.30
2019-02-19T04:23:38.106Z,8.30
2019-02-19T04:26:05.493Z,8.30
2019-02-19T04:28:32.886Z,8.20
2019-02-19T04:31:00.206Z,8.20
2019-02-19T04:33:27.535Z,8.20
2019-02-19T04:35:54.939Z,8.20
2019-02-19T04:38:22.287Z,8.20
2019-02-19T04:40:50.136Z,8.30
2019-02-19T04:43:17.561Z,8.30
2019-02-19T04:45:44.878Z,8.40
2019-02-19T04:48:12.110Z,8.40
2019-02-19T04:50:39.555Z,8.40
2019-02-19T04:53:06.911Z,8.50
2019-02-19T04:55:34.253Z,8.50
2019-02-19T04:58:01.683Z,8.50
2019-02-19T05:00:29.093Z,8.60
2019-02-19T05:02:56.513Z,8.60
2019-02-19T05:05:23.873Z,8.60
2019-02-19T05:07:51.364Z,8.60
2019-02-19T05:10:18.740Z,8.60
2019-02-19T05:12:46.111Z,8.50
2019-02-19T05:15:13.521Z,8.50
2019-02-19T05:17:40.779Z,8.50
2019-02-19T05:20:16.524Z,8.60
2019-02-19T05:22:43.970Z,8.60
2019-02-19T05:25:11.371Z,8.50
2019-02-19T05:27:38.702Z,8.60
2019-02-19T05:30:06.283Z,8.60
2019-02-19T05:32:33.448Z,8.60
2019-02-19T05:35:00.823Z,8.60
2019-02-19T05:37:28.274Z,8.60
2019-02-19T05:39:55.618Z,8.70
2019-02-19T05:42:22.859Z,8.70
2019-02-19T05:44:50.322Z,8.70
2019-02-19T05:47:17.710Z,8.70
2019-02-19T05:49:44.967Z,8.70
2019-02-19T05:52:12.376Z,8.70
2019-02-19T05:54:39.749Z,8.70
2019-02-19T05:57:08.007Z,8.70
2019-02-19T05:59:35.411Z,8.60
2019-02-19T06:02:02.770Z,8.60
2019-02-19T06:04:30.107Z,8.60
2019-02-19T06:06:57.538Z,8.70
2019-02-19T06:09:24.895Z,8.80
2019-02-19T06:11:52.312Z,8.70
2019-02-19T06:14:19.576Z,8.60
2019-02-19T06:16:47.048Z,8.60
2019-02-19T06:19:14.189Z,8.60
2019-02-19T06:21:41.654Z,8.60
2019-02-19T06:24:09.026Z,8.70
2019-02-19T06:26:36.374Z,8.70
2019-02-19T06:29:03.709Z,8.70
2019-02-19T06:31:31.171Z,8.70
2019-02-19T06:33:58.542Z,8.70
2019-02-19T06:36:25.798Z,8.70
2019-02-19T06:38:53.317Z,8.60
2019-02-19T06:41:20.669Z,8.60
2019-02-19T06:43:47.954Z,8.50
2019-02-19T06:46:15.405Z,8.50
2019-02-19T06:48:42.809Z,8.50
2019-02-19T06:51:10.134Z,8.40
2019-02-19T06:53:37.522Z,8.40
2019-02-19T06:56:04.793Z,8.40
2019-02-19T06:58:32.165Z,8.50
2019-02-19T07:01:00.610Z,8.50
2019-02-19T07:03:37.703Z,8.50
2019-02-19T07:06:05.074Z,8.50
2019-02-19T07:08:32.487Z,8.50
2019-02-19T07:10:59.949Z,8.50
2019-02-19T07:13:27.278Z,8.50
2019-02-19T07:15:54.656Z,8.50
2019-02-19T07:18:21.982Z,8.50
2019-02-19T07:20:49.368Z,8.40
2019-02-19T07:23:16.755Z,8.40
2019-02-19T07:25:44.031Z,8.50
2019-02-19T07:28:11.450Z,8.50
2019-02-19T07:30:38.783Z,8.50
2019-02-19T07:33:05.983Z,8.60
2019-02-19T07:35:33.326Z,8.60
2019-02-19T07:38:00.707Z,8.60
2019-02-19T07:40:27.970Z,8.60
2019-02-19T07:42:55.442Z,8.60
2019-02-19T07:45:22.811Z,8.60
2019-02-19T07:47:50.207Z,8.60
2019-02-19T07:50:17.613Z,8.60
2019-02-19T07:52:44.983Z,8.50
2019-02-19T07:55:12.613Z,8.50
2019-02-19T07:57:39.926Z,8.50
2019-02-19T08:00:08.049Z,8.40
2019-02-19T08:02:35.481Z,8.40
2019-02-19T08:05:02.841Z,8.40
2019-02-19T08:07:30.125Z,8.30
2019-02-19T08:09:57.546Z,8.20
2019-02-19T08:12:26.250Z,8.30
2019-02-19T08:14:55.177Z,8.40
2019-02-19T08:17:22.561Z,8.30
2019-02-19T08:19:50.026Z,8.30
2019-02-19T08:22:17.169Z,8.20
2019-02-19T08:24:44.476Z,8.30
2019-02-19T08:27:11.699Z,8.30
2019-02-19T08:29:38.854Z,8.30
2019-02-19T08:32:07.106Z,8.20
2019-02-19T08:34:34.231Z,8.20
2019-02-19T08:37:01.577Z,8.00
2019-02-19T08:39:28.894Z,8.00
2019-02-19T08:41:56.327Z,8.00
2019-02-19T08:44:23.682Z,8.10
2019-02-19T08:46:51.026Z,8.10
2019-02-19T08:49:18.451Z,8.00
2019-02-19T08:51:46.075Z,7.90
2019-02-19T08:54:13.408Z,7.80
2019-02-19T08:56:40.864Z,7.80
2019-02-19T08:59:08.182Z,7.70
2019-02-19T09:01:35.520Z,7.70
2019-02-19T09:04:02.955Z,7.70
2019-02-19T09:06:30.246Z,7.70
2019-02-19T09:08:57.431Z,7.60
2019-02-19T09:15:03.411Z,7.70
2019-02-19T09:17:31.045Z,7.60
2019-02-19T09:19:59.579Z,7.50
2019-02-19T09:22:27.012Z,7.50
2019-02-19T09:24:54.164Z,7.60
2019-02-19T09:27:21.523Z,7.60
2019-02-19T09:29:48.887Z,7.60
2019-02-19T09:32:16.214Z,7.60
2019-02-19T09:34:43.536Z,7.60
2019-02-19T09:37:10.775Z,7.60
2019-02-19T09:39:38.014Z,7.60
2019-02-19T09:42:05.253Z,7.60
2019-02-19T09:44:32.580Z,7.70
2019-02-19T09:46:59.862Z,7.60
2019-02-19T09:49:27.105Z,7.60
2019-02-19T09:51:54.355Z,7.60
2019-02-19T09:54:21.537Z,7.60
2019-02-19T09:56:48.896Z,7.60
2019-02-19T09:59:16.314Z,7.60
2019-02-19T10:02:12.419Z,7.60
2019-02-19T10:04:43.387Z,7.60
2019-02-19T10:07:10.595Z,7.60
2019-02-19T10:09:37.960Z,7.60
2019-02-19T10:12:05.190Z,7.60
2019-02-19T10:14:32.582Z,7.60
2019-02-19T10:16:59.725Z,7.60
2019-02-19T10:19:27.140Z,7.60
2019-02-19T10:21:54.618Z,7.60
2019-02-19T10:24:22.318Z,7.60
2019-02-19T10:26:49.800Z,7.70
2019-02-19T10:29:17.245Z,7.70
2019-02-19T10:31:50.499Z,7.60
2019-02-19T10:34:18.815Z,7.60
2019-02-19T10:36:46.264Z,7.60
2019-02-19T10:39:13.593Z,7.70
2019-02-19T10:41:40.890Z,7.70
2019-02-19T10:44:08.220Z,7.80
2019-02-19T10:46:35.614Z,7.90
2019-02-19T10:49:03.078Z,7.90
2019-02-19T10:51:30.547Z,8.00
2019-02-19T10:53:58.016Z,8.10
2019-02-19T10:56:25.154Z,8.20
2019-02-19T10:58:52.530Z,8.20
2019-02-19T11:01:19.854Z,8.20
2019-02-19T11:03:47.139Z,8.20
2019-02-19T11:06:14.507Z,8.30
2019-02-19T11:08:41.900Z,8.40
2019-02-19T11:11:09.280Z,8.40
2019-02-19T11:13:36.679Z,8.50
2019-02-19T11:16:04.043Z,8.50
2019-02-19T11:18:31.412Z,8.40
2019-02-19T11:20:58.772Z,8.30
2019-02-19T11:23:26.181Z,8.60
2019-02-19T11:25:53.310Z,8.80
2019-02-19T11:28:20.686Z,9.10
2019-02-19T11:30:48.082Z,9.30
2019-02-19T11:33:15.597Z,9.00
2019-02-19T11:35:43.012Z,9.20
2019-02-19T11:38:10.504Z,9.50
2019-02-19T11:40:37.858Z,9.70
2019-02-19T11:43:05.307Z,9.80
2019-02-19T11:45:32.728Z,9.90
2019-02-19T11:48:00.165Z,9.90
2019-02-19T11:50:27.545Z,10.30
2019-02-19T11:52:54.942Z,10.50
2019-02-19T11:55:22.366Z,10.60
2019-02-19T11:57:49.874Z,10.50
2019-02-19T12:00:20.540Z,10.20
2019-02-19T12:02:47.930Z,10.40
2019-02-19T12:05:15.263Z,10.50
2019-02-19T12:07:42.600Z,10.60
2019-02-19T12:10:11.793Z,11.20
2019-02-19T12:12:39.082Z,10.80
2019-02-19T12:15:07.537Z,11.40
2019-02-19T12:17:34.971Z,12.10
2019-02-19T12:20:02.434Z,11.60
2019-02-19T12:22:29.999Z,13.10
2019-02-19T12:24:57.296Z,14.40
2019-02-19T12:27:24.646Z,14.10
2019-02-19T12:29:52.081Z,13.80
2019-02-19T12:32:19.500Z,12.70
2019-02-19T12:34:46.886Z,12.50
2019-02-19T12:37:14.280Z,13.70
2019-02-19T12:39:41.733Z,15.30
2019-02-19T12:42:09.124Z,15.30
2019-02-19T12:44:36.516Z,15.40
2019-02-19T12:47:03.918Z,16.40
2019-02-19T12:49:31.441Z,18.40
2019-02-19T12:51:58.710Z,20.10
2019-02-19T12:54:26.130Z,19.90
2019-02-19T12:56:53.535Z,18.90
2019-02-19T12:59:20.825Z,17.70
2019-02-19T13:01:48.277Z,17.50
2019-02-19T13:04:15.716Z,15.00
2019-02-19T13:06:43.102Z,15.30
2019-02-19T13:09:13.626Z,13.70
2019-02-19T13:11:40.770Z,13.00
2019-02-19T13:14:08.166Z,13.00
2019-02-19T13:16:35.847Z,13.70
2019-02-19T13:19:03.753Z,13.90
2019-02-19T13:21:31.378Z,14.70
2019-02-19T13:23:58.679Z,14.90
2019-02-19T13:26:26.030Z,14.60
2019-02-19T13:28:53.455Z,15.00
2019-02-19T13:31:20.846Z,15.10
2019-02-19T13:33:48.096Z,15.10
2019-02-19T13:36:15.724Z,14.30
2019-02-19T13:38:43.079Z,13.10
2019-02-19T13:41:10.491Z,12.90
2019-02-19T13:43:37.901Z,12.90
2019-02-19T13:46:05.294Z,13.00
2019-02-19T13:48:32.521Z,13.00
2019-02-19T13:50:59.905Z,12.60
2019-02-19T13:53:33.596Z,13.10
2019-02-19T13:56:02.088Z,13.50
2019-02-19T13:58:29.431Z,13.50
2019-02-19T14:00:58.063Z,13.30
2019-02-19T14:03:25.434Z,13.20
2019-02-19T14:05:52.805Z,13.10
2019-02-19T14:08:20.165Z,12.90
2019-02-19T14:10:47.373Z,12.50
2019-02-19T14:13:14.797Z,12.20
2019-02-19T14:16:01.191Z,11.70
2019-02-19T14:19:03.578Z,11.60
2019-02-19T14:21:39.338Z,11.70
2019-02-19T14:24:20.605Z,11.60
2019-02-19T14:27:05.890Z,11.70
2019-02-19T14:30:07.646Z,11.80
2019-02-19T14:32:53.010Z,12.00
2019-02-19T14:35:34.977Z,12.00
2019-02-19T14:38:20.210Z,11.70
2019-02-19T14:41:24.879Z,11.50
2019-02-19T14:44:05.145Z,11.40
2019-02-19T14:46:55.041Z,11.30
2019-02-19T14:49:47.500Z,11.30
2019-02-19T14:52:45.915Z,11.10
2019-02-19T14:55:20.751Z,11.00
2019-02-19T14:57:55.641Z,11.10
2019-02-19T15:00:54.367Z,11.10
2019-02-19T15:03:40.381Z,11.20
2019-02-19T15:06:25.798Z,11.20
2019-02-19T15:09:18.411Z,11.20
2019-02-19T15:12:07.755Z,11.20
2019-02-19T15:14:50.770Z,11.30
2019-02-19T15:17:41.675Z,11.40
2019-02-19T15:20:27.464Z,11.40
2019-02-19T15:23:16.949Z,11.50
2019-02-19T15:26:16.213Z,11.60
2019-02-19T15:29:03.171Z,11.60
2019-02-19T15:31:45.423Z,11.50
2019-02-19T15:34:30.976Z,11.40
2019-02-19T15:37:17.853Z,11.40
2019-02-19T15:40:04.698Z,11.30
2019-02-19T15:42:43.219Z,11.10
2019-02-19T15:45:29.091Z,10.90
2019-02-19T15:48:14.458Z,10.90
2019-02-19T15:51:07.178Z,10.90
2019-02-19T15:53:51.730Z,11.00
2019-02-19T15:56:30.642Z,11.20
2019-02-19T15:59:06.818Z,11.20
2019-02-19T16:01:53.567Z,11.20
2019-02-19T16:04:39.833Z,11.10
2019-02-19T16:07:43.213Z,11.10
2019-02-19T16:10:25.248Z,10.90
2019-02-19T16:12:58.405Z,10.80
2019-02-19T16:15:57.001Z,10.70
2019-02-19T16:18:53.008Z,10.70
2019-02-19T16:21:49.002Z,10.70
2019-02-19T16:24:48.303Z,10.70
2019-02-19T16:27:35.478Z,10.60
2019-02-19T16:30:20.632Z,10.50
2019-02-19T16:33:01.193Z,10.40
2019-02-19T16:35:56.824Z,10.40
2019-02-19T16:38:49.005Z,10.30
2019-02-19T16:41:28.368Z,10.20
2019-02-19T16:44:03.571Z,10.10
2019-02-19T16:46:56.691Z,10.10
2019-02-19T16:49:43.657Z,10.10
2019-02-19T16:52:30.846Z,10.00
2019-02-19T16:55:23.684Z,9.90
2019-02-19T16:58:22.643Z,9.80
2019-02-19T17:01:08.066Z,9.80
2019-02-19T17:03:57.490Z,9.80
2019-02-19T17:06:47.451Z,9.80
2019-02-19T17:09:19.714Z,9.70
2019-02-19T17:11:56.266Z,9.70
2019-02-19T17:15:01.040Z,9.60
2019-02-19T17:17:48.108Z,9.60
2019-02-19T17:20:29.688Z,9.60
2019-02-19T17:23:09.629Z,9.60
2019-02-19T17:25:46.337Z,9.60
2019-02-19T17:28:28.964Z,9.50
2019-02-19T17:31:25.180Z,9.40
2019-02-19T17:34:19.452Z,9.40
2019-02-19T17:36:58.394Z,9.40
2019-02-19T17:39:34.322Z,9.30
2019-02-19T17:42:25.396Z,9.20
2019-02-19T17:45:02.132Z,9.20
2019-02-19T17:47:59.514Z,9.10
2019-02-19T17:50:38.382Z,9.10
2019-02-19T17:53:24.007Z,9.00
2019-02-19T17:56:26.425Z,9.00
2019-02-19T17:59:16.256Z,9.00
2019-02-19T18:02:09.518Z,8.90
2019-02-19T18:04:55.495Z,8.90
2019-02-19T18:07:40.272Z,8.90
2019-02-19T18:10:24.497Z,8.80
2019-02-19T18:13:24.556Z,8.80
2019-02-19T18:16:14.123Z,8.80
2019-02-19T18:18:50.349Z,8.70
2019-02-19T18:21:18.703Z,8.60
2019-02-19T18:23:46.254Z,8.60
2019-02-19T18:26:13.744Z,8.50
2019-02-19T18:28:41.130Z,8.50
2019-02-19T18:31:08.590Z,8.50
2019-02-19T18:33:36.599Z,8.50
2019-02-19T18:36:03.954Z,8.50
2019-02-19T18:38:31.760Z,8.40
2019-02-19T18:40:59.330Z,8.40
2019-02-19T18:43:26.841Z,8.30
2019-02-19T18:45:59.603Z,8.30
2019-02-19T18:48:27.049Z,8.20
2019-02-19T18:50:58.537Z,8.20
2019-02-19T18:53:23.862Z,8.20
2019-02-19T18:55:51.246Z,8.20
2019-02-19T18:58:18.678Z,8.10
2019-02-19T19:00:46.113Z,8.10
2019-02-19T19:03:13.604Z,8.10
2019-02-19T19:05:41.118Z,8.10
2019-02-19T19:08:08.393Z,8.10
2019-02-19T19:10:36.027Z,8.10
2019-02-19T19:13:03.393Z,8.10
2019-02-19T19:15:48.169Z,8.00
2019-02-19T19:18:15.554Z,8.00
2019-02-19T19:20:42.996Z,8.00
2019-02-19T19:23:10.411Z,8.00
2019-02-19T19:36:55.211Z,7.80
2019-02-19T19:39:22.509Z,7.80
2019-02-19T19:41:50.048Z,7.70
2019-02-19T19:44:17.419Z,7.70
2019-02-19T19:46:44.896Z,7.70
2019-02-19T19:49:12.392Z,7.70
2019-02-19T19:53:02.148Z,7.60
2019-02-19T19:55:35.928Z,7.60
2019-02-19T19:58:05.289Z,7.50
2019-02-19T20:00:33.155Z,7.50
2019-02-19T20:03:00.847Z,7.50
2019-02-19T20:05:58.992Z,7.50
2019-02-19T20:08:26.404Z,7.40
2019-02-19T20:10:53.766Z,7.50
2019-02-19T20:13:21.252Z,7.50
2019-02-19T20:15:48.676Z,7.40
2019-02-19T20:18:16.100Z,7.30
2019-02-19T20:20:43.666Z,7.40
2019-02-19T20:23:11.213Z,7.30
2019-02-19T20:25:38.709Z,7.40
2019-02-19T20:28:06.321Z,7.40
2019-02-19T20:30:33.790Z,7.50
2019-02-19T20:33:01.318Z,7.50
2019-02-19T20:35:28.806Z,7.60
2019-02-19T20:37:56.212Z,7.60
2019-02-19T20:40:23.741Z,7.60
2019-02-19T20:42:51.132Z,7.60
2019-02-19T20:45:18.696Z,7.60
2019-02-19T20:47:46.293Z,7.60
2019-02-19T20:50:14.006Z,7.60
2019-02-19T20:52:41.498Z,7.50
2019-02-19T20:55:08.931Z,7.50
2019-02-19T20:57:36.475Z,7.50
2019-02-19T21:00:04.278Z,7.50
2019-02-19T21:02:33.757Z,7.50
2019-02-19T21:05:01.522Z,7.50
2019-02-19T21:07:42.643Z,7.50
2019-02-19T21:10:12.553Z,7.40
2019-02-19T21:12:40.787Z,7.40
2019-02-19T21:15:09.337Z,7.40
2019-02-19T21:17:36.797Z,7.20
2019-02-19T21:20:04.715Z,7.10
2019-02-19T21:22:32.287Z,7.20
2019-02-19T21:24:59.732Z,7.30
2019-02-19T21:27:27.427Z,7.30
2019-02-19T21:29:54.806Z,7.30
2019-02-19T21:32:23.338Z,7.20
2019-02-19T21:34:50.782Z,7.10
2019-02-19T21:37:18.285Z,7.10
2019-02-19T21:39:45.677Z,7.00
2019-02-19T21:42:13.174Z,7.00
2019-02-19T21:44:41.805Z,7.00
2019-02-19T21:47:09.363Z,7.00
2019-02-19T21:49:36.728Z,7.00
2019-02-19T21:52:04.215Z,7.00
2019-02-19T21:54:31.711Z,7.00
2019-02-19T21:56:59.325Z,7.10
2019-02-19T21:59:26.661Z,7.00
2019-02-19T22:01:54.163Z,6.90
2019-02-19T22:04:21.551Z,6.90
2019-02-19T22:06:49.039Z,7.00
2019-02-19T22:09:16.546Z,6.90
2019-02-19T22:11:44.093Z,7.00
2019-02-19T22:14:11.382Z,7.00
2019-02-19T22:16:39.850Z,7.00
2019-02-19T22:19:07.306Z,7.10
2019-02-19T22:21:51.189Z,7.10
2019-02-19T22:24:34.111Z,7.00
2019-02-19T22:27:02.049Z,7.00
2019-02-19T22:29:29.426Z,6.90
2019-02-19T22:31:56.818Z,6.90
2019-02-19T22:34:24.299Z,6.70
2019-02-19T22:36:51.636Z,6.70
2019-02-19T22:39:18.971Z,6.60
2019-02-19T22:41:46.406Z,6.70
2019-02-19T22:44:13.908Z,6.70
2019-02-19T22:46:41.155Z,6.70
2019-02-19T22:49:08.559Z,6.70
2019-02-19T22:51:35.953Z,6.70
2019-02-19T22:54:10.431Z,6.70
2019-02-19T22:56:40.397Z,6.70
2019-02-19T22:59:07.745Z,6.60
2019-02-19T23:01:38.315Z,6.50
2019-02-19T23:04:06.102Z,6.40
2019-02-19T23:06:33.714Z,6.40
2019-02-19T23:09:01.000Z,6.50
2019-02-19T23:11:29.189Z,6.60
2019-02-19T23:13:56.567Z,6.60
2019-02-19T23:16:24.085Z,6.60
2019-02-19T23:18:51.467Z,6.60
2019-02-19T23:21:18.802Z,6.60
2019-02-19T23:23:46.198Z,6.60
2019-02-19T23:26:13.699Z,6.50
2019-02-19T23:28:41.074Z,6.40
2019-02-19T23:31:08.631Z,6.40
2019-02-19T23:33:35.991Z,6.40
2019-02-19T23:36:40.812Z,6.40
2019-02-19T23:39:08.499Z,6.30
2019-02-19T23:41:37.738Z,6.30
2019-02-19T23:44:05.120Z,6.30
2019-02-19T23:46:32.525Z,6.20
2019-02-19T23:48:59.858Z,6.20
2019-02-19T23:51:27.239Z,6.20
2019-02-19T23:53:54.673Z,6.20
2019-02-19T23:56:22.140Z,6.20
2019-02-19T23:58:49.408Z,6.10
